sensor_id;sensor_type;location;lat;lon;timestamp;pressure;altitude;pressure_sealevel;temperature;humidity
10652;BME280;5374;42.742;23.266;2023-01-29T00:01:01;95592.69;;;1.49;100.00
10652;BME280;5374;42.742;23.266;2023-01-29T00:03:49;95592.88;;;1.47;100.00
10652;BME280;5374;42.742;23.266;2023-01-29T00:06:38;95592.63;;;1.42;100.00
10652;BME280;5374;42.742;23.266;2023-01-29T00:09:26;95580.91;;;1.31;100.00
10652;BME280;5374;42.742;23.266;2023-01-29T00:12:13;95593.19;;;1.37;100.00
10652;BME280;5374;42.742;23.266;2023-01-29T00:15:02;95594.69;;;1.47;100.00
10652;BME280;5374;42.742;23.266;2023-01-29T00:17:49;95606.34;;;1.44;100.00
10652;BME280;5374;42.742;23.266;2023-01-29T00:20:37;95572.91;;;1.18;100.00
10652;BME280;5374;42.742;23.266;2023-01-29T00:23:25;95611.91;;;1.34;100.00
10652;BME280;5374;42.742;23.266;2023-01-29T00:26:13;95605.38;;;1.24;100.00
10652;BME280;5374;42.742;23.266;2023-01-29T00:29:00;95615.34;;;1.35;100.00
10652;BME280;5374;42.742;23.266;2023-01-29T00:31:47;95612.28;;;1.31;100.00
10652;BME280;5374;42.742;23.266;2023-01-29T00:34:34;95619.53;;;1.36;100.00
10652;BME280;5374;42.742;23.266;2023-01-29T00:37:21;95613.28;;;1.30;100.00
10652;BME280;5374;42.742;23.266;2023-01-29T00:40:11;95617.00;;;1.21;100.00
10652;BME280;5374;42.742;23.266;2023-01-29T00:42:58;95620.69;;;1.27;100.00
10652;BME280;5374;42.742;23.266;2023-01-29T00:46:02;95574.06;;;1.09;100.00
10652;BME280;5374;42.742;23.266;2023-01-29T00:48:51;95606.19;;;1.24;100.00
10652;BME280;5374;42.742;23.266;2023-01-29T00:51:40;95611.09;;;1.34;100.00
10652;BME280;5374;42.742;23.266;2023-01-29T00:54:27;95615.09;;;1.30;100.00
10652;BME280;5374;42.742;23.266;2023-01-29T00:57:15;95609.09;;;1.36;100.00
10652;BME280;5374;42.742;23.266;2023-01-29T01:00:04;95611.50;;;1.37;100.00
10652;BME280;5374;42.742;23.266;2023-01-29T01:02:52;95608.09;;;1.37;100.00
10652;BME280;5374;42.742;23.266;2023-01-29T01:05:50;95608.84;;;1.31;100.00
10652;BME280;5374;42.742;23.266;2023-01-29T01:08:47;95610.28;;;1.33;100.00
10652;BME280;5374;42.742;23.266;2023-01-29T01:11:52;95605.44;;;1.30;100.00
10652;BME280;5374;42.742;23.266;2023-01-29T01:14:40;95607.44;;;1.28;100.00
10652;BME280;5374;42.742;23.266;2023-01-29T01:17:27;95564.97;;;1.05;100.00
10652;BME280;5374;42.742;23.266;2023-01-29T01:20:15;95604.25;;;1.33;100.00
10652;BME280;5374;42.742;23.266;2023-01-29T01:23:02;95609.88;;;1.36;100.00
10652;BME280;5374;42.742;23.266;2023-01-29T01:25:50;95602.66;;;1.38;100.00
10652;BME280;5374;42.742;23.266;2023-01-29T01:28:37;95601.94;;;1.45;100.00
10652;BME280;5374;42.742;23.266;2023-01-29T01:31:25;95607.09;;;1.38;100.00
10652;BME280;5374;42.742;23.266;2023-01-29T01:34:12;95605.91;;;1.41;100.00
10652;BME280;5374;42.742;23.266;2023-01-29T01:36:59;95603.91;;;1.43;100.00
10652;BME280;5374;42.742;23.266;2023-01-29T01:39:52;95593.91;;;1.25;100.00
10652;BME280;5374;42.742;23.266;2023-01-29T01:42:42;95606.53;;;1.43;100.00
10652;BME280;5374;42.742;23.266;2023-01-29T01:45:31;95601.66;;;1.40;100.00
10652;BME280;5374;42.742;23.266;2023-01-29T01:48:23;95603.16;;;1.49;100.00
10652;BME280;5374;42.742;23.266;2023-01-29T01:51:11;95614.25;;;1.51;100.00
10652;BME280;5374;42.742;23.266;2023-01-29T01:54:02;95602.00;;;1.30;100.00
10652;BME280;5374;42.742;23.266;2023-01-29T01:56:54;95610.28;;;1.33;100.00
10652;BME280;5374;42.742;23.266;2023-01-29T01:59:54;95611.69;;;1.36;100.00
10652;BME280;5374;42.742;23.266;2023-01-29T02:02:45;95597.41;;;1.32;100.00
10652;BME280;5374;42.742;23.266;2023-01-29T02:05:52;95621.97;;;1.37;100.00
10652;BME280;5374;42.742;23.266;2023-01-29T02:09:01;95619.00;;;1.41;100.00
10652;BME280;5374;42.742;23.266;2023-01-29T02:12:10;95614.56;;;1.41;100.00
10652;BME280;5374;42.742;23.266;2023-01-29T02:14:58;95619.59;;;1.43;100.00
10652;BME280;5374;42.742;23.266;2023-01-29T02:17:50;95597.78;;;1.29;100.00
10652;BME280;5374;42.742;23.266;2023-01-29T02:20:40;95614.00;;;1.46;100.00
10652;BME280;5374;42.742;23.266;2023-01-29T02:23:56;95624.22;;;1.41;100.00
10652;BME280;5374;42.742;23.266;2023-01-29T02:27:06;95615.44;;;1.48;100.00
10652;BME280;5374;42.742;23.266;2023-01-29T02:30:02;95614.63;;;1.48;100.00
10652;BME280;5374;42.742;23.266;2023-01-29T02:32:58;95605.06;;;1.33;100.00
10652;BME280;5374;42.742;23.266;2023-01-29T02:35:53;95618.88;;;1.49;100.00
10652;BME280;5374;42.742;23.266;2023-01-29T02:38:48;95605.53;;;1.44;100.00
10652;BME280;5374;42.742;23.266;2023-01-29T02:41:40;95619.50;;;1.51;100.00
10652;BME280;5374;42.742;23.266;2023-01-29T02:44:34;95625.00;;;1.62;100.00
10652;BME280;5374;42.742;23.266;2023-01-29T02:47:29;95633.03;;;1.61;100.00
10652;BME280;5374;42.742;23.266;2023-01-29T02:50:26;95633.19;;;1.53;100.00
10652;BME280;5374;42.742;23.266;2023-01-29T02:53:16;95639.28;;;1.60;100.00
10652;BME280;5374;42.742;23.266;2023-01-29T02:56:09;95616.53;;;1.60;100.00
10652;BME280;5374;42.742;23.266;2023-01-29T02:58:59;95631.47;;;1.66;100.00
10652;BME280;5374;42.742;23.266;2023-01-29T03:01:52;95632.53;;;1.72;100.00
10652;BME280;5374;42.742;23.266;2023-01-29T03:04:45;95614.97;;;1.66;100.00
10652;BME280;5374;42.742;23.266;2023-01-29T03:07:39;95627.13;;;1.74;100.00
10652;BME280;5374;42.742;23.266;2023-01-29T03:10:30;95641.19;;;1.73;100.00
10652;BME280;5374;42.742;23.266;2023-01-29T03:13:24;95633.84;;;1.61;100.00
10652;BME280;5374;42.742;23.266;2023-01-29T03:16:19;95624.78;;;1.57;100.00
10652;BME280;5374;42.742;23.266;2023-01-29T03:19:09;95629.06;;;1.65;100.00
10652;BME280;5374;42.742;23.266;2023-01-29T03:21:59;95627.69;;;1.69;100.00
10652;BME280;5374;42.742;23.266;2023-01-29T03:24:50;95646.88;;;1.76;100.00
10652;BME280;5374;42.742;23.266;2023-01-29T03:27:59;95640.03;;;1.75;100.00
10652;BME280;5374;42.742;23.266;2023-01-29T03:31:07;95647.50;;;1.78;100.00
10652;BME280;5374;42.742;23.266;2023-01-29T03:34:15;95637.72;;;1.65;100.00
10652;BME280;5374;42.742;23.266;2023-01-29T03:37:15;95644.00;;;1.71;100.00
10652;BME280;5374;42.742;23.266;2023-01-29T03:40:04;95637.41;;;1.75;100.00
10652;BME280;5374;42.742;23.266;2023-01-29T03:42:59;95644.44;;;1.75;100.00
10652;BME280;5374;42.742;23.266;2023-01-29T03:45:59;95644.25;;;1.76;100.00
10652;BME280;5374;42.742;23.266;2023-01-29T03:48:54;95633.97;;;1.75;100.00
10652;BME280;5374;42.742;23.266;2023-01-29T03:51:52;95635.16;;;1.72;100.00
10652;BME280;5374;42.742;23.266;2023-01-29T03:54:50;95638.78;;;1.71;100.00
10652;BME280;5374;42.742;23.266;2023-01-29T03:57:43;95642.63;;;1.75;100.00
10652;BME280;5374;42.742;23.266;2023-01-29T04:00:35;95642.25;;;1.78;100.00
10652;BME280;5374;42.742;23.266;2023-01-29T04:03:29;95634.00;;;1.81;100.00
10652;BME280;5374;42.742;23.266;2023-01-29T04:06:21;95644.47;;;1.81;100.00
10652;BME280;5374;42.742;23.266;2023-01-29T04:09:12;95643.09;;;1.85;100.00
10652;BME280;5374;42.742;23.266;2023-01-29T04:12:04;95645.72;;;1.85;100.00
10652;BME280;5374;42.742;23.266;2023-01-29T04:14:55;95648.59;;;1.90;100.00
10652;BME280;5374;42.742;23.266;2023-01-29T04:17:48;95653.00;;;1.90;100.00
10652;BME280;5374;42.742;23.266;2023-01-29T04:20:36;95653.00;;;1.90;100.00
10652;BME280;5374;42.742;23.266;2023-01-29T04:23:25;95658.69;;;1.93;100.00
10652;BME280;5374;42.742;23.266;2023-01-29T04:26:40;95654.88;;;1.96;100.00
10652;BME280;5374;42.742;23.266;2023-01-29T04:29:42;95649.16;;;1.86;100.00
10652;BME280;5374;42.742;23.266;2023-01-29T04:32:45;95659.50;;;1.94;100.00
10652;BME280;5374;42.742;23.266;2023-01-29T04:35:46;95656.63;;;1.89;100.00
10652;BME280;5374;42.742;23.266;2023-01-29T04:38:46;95650.94;;;1.85;100.00
10652;BME280;5374;42.742;23.266;2023-01-29T04:41:43;95660.28;;;1.94;100.00
10652;BME280;5374;42.742;23.266;2023-01-29T04:44:39;95662.66;;;1.89;100.00
10652;BME280;5374;42.742;23.266;2023-01-29T04:47:32;95663.03;;;1.86;100.00
10652;BME280;5374;42.742;23.266;2023-01-29T04:50:24;95650.16;;;1.85;100.00
10652;BME280;5374;42.742;23.266;2023-01-29T04:53:17;95666.91;;;1.90;100.00
10652;BME280;5374;42.742;23.266;2023-01-29T04:56:16;95667.53;;;1.92;100.00
10652;BME280;5374;42.742;23.266;2023-01-29T04:59:10;95665.91;;;1.91;100.00
10652;BME280;5374;42.742;23.266;2023-01-29T05:02:02;95659.81;;;1.84;100.00
10652;BME280;5374;42.742;23.266;2023-01-29T05:04:51;95667.53;;;1.92;100.00
10652;BME280;5374;42.742;23.266;2023-01-29T05:07:40;95670.78;;;1.94;100.00
10652;BME280;5374;42.742;23.266;2023-01-29T05:10:29;95666.72;;;1.92;100.00
10652;BME280;5374;42.742;23.266;2023-01-29T05:13:19;95678.88;;;1.99;100.00
10652;BME280;5374;42.742;23.266;2023-01-29T05:16:13;95671.22;;;1.98;100.00
10652;BME280;5374;42.742;23.266;2023-01-29T05:19:04;95673.63;;;1.99;100.00
10652;BME280;5374;42.742;23.266;2023-01-29T05:21:55;95668.72;;;1.90;100.00
10652;BME280;5374;42.742;23.266;2023-01-29T05:24:42;95674.38;;;1.93;100.00
10652;BME280;5374;42.742;23.266;2023-01-29T05:27:33;95667.28;;;1.87;100.00
10652;BME280;5374;42.742;23.266;2023-01-29T05:30:38;95674.31;;;1.87;100.00
10652;BME280;5374;42.742;23.266;2023-01-29T05:33:28;95688.47;;;1.92;100.00
10652;BME280;5374;42.742;23.266;2023-01-29T05:36:17;95679.00;;;1.91;100.00
10652;BME280;5374;42.742;23.266;2023-01-29T05:39:05;95680.63;;;1.92;100.00
10652;BME280;5374;42.742;23.266;2023-01-29T05:41:52;95683.88;;;1.94;100.00
10652;BME280;5374;42.742;23.266;2023-01-29T05:44:39;95693.97;;;1.97;100.00
10652;BME280;5374;42.742;23.266;2023-01-29T05:47:26;95697.78;;;1.95;100.00
10652;BME280;5374;42.742;23.266;2023-01-29T05:50:14;95699.94;;;1.91;100.00
10652;BME280;5374;42.742;23.266;2023-01-29T05:53:02;95700.38;;;1.95;100.00
10652;BME280;5374;42.742;23.266;2023-01-29T05:55:50;95693.28;;;1.89;100.00
10652;BME280;5374;42.742;23.266;2023-01-29T05:58:38;95709.34;;;1.86;100.00
10652;BME280;5374;42.742;23.266;2023-01-29T06:01:25;95713.66;;;1.93;100.00
10652;BME280;5374;42.742;23.266;2023-01-29T06:04:12;95717.53;;;1.97;100.00
10652;BME280;5374;42.742;23.266;2023-01-29T06:06:59;95707.50;;;2.01;100.00
10652;BME280;5374;42.742;23.266;2023-01-29T06:09:49;95713.53;;;2.01;100.00
10652;BME280;5374;42.742;23.266;2023-01-29T06:12:36;95717.19;;;2.07;100.00
10652;BME280;5374;42.742;23.266;2023-01-29T06:15:23;95723.59;;;2.04;100.00
10652;BME280;5374;42.742;23.266;2023-01-29T06:18:11;95718.28;;;1.91;100.00
10652;BME280;5374;42.742;23.266;2023-01-29T06:20:59;95728.19;;;1.96;100.00
10652;BME280;5374;42.742;23.266;2023-01-29T06:23:47;95725.13;;;1.92;100.00
10652;BME280;5374;42.742;23.266;2023-01-29T06:26:35;95741.47;;;1.94;100.00
10652;BME280;5374;42.742;23.266;2023-01-29T06:29:23;95740.09;;;1.98;100.00
10652;BME280;5374;42.742;23.266;2023-01-29T06:32:10;95746.59;;;2.02;100.00
10652;BME280;5374;42.742;23.266;2023-01-29T06:34:57;95743.34;;;2.00;100.00
10652;BME280;5374;42.742;23.266;2023-01-29T06:37:44;95747.00;;;2.06;100.00
10652;BME280;5374;42.742;23.266;2023-01-29T06:40:31;95755.72;;;2.13;100.00
10652;BME280;5374;42.742;23.266;2023-01-29T06:43:20;95748.50;;;2.15;100.00
10652;BME280;5374;42.742;23.266;2023-01-29T06:46:08;95751.97;;;2.22;100.00
10652;BME280;5374;42.742;23.266;2023-01-29T06:48:57;95752.78;;;2.23;100.00
10652;BME280;5374;42.742;23.266;2023-01-29T06:51:45;95755.63;;;2.28;100.00
10652;BME280;5374;42.742;23.266;2023-01-29T06:54:32;95750.00;;;2.31;100.00
10652;BME280;5374;42.742;23.266;2023-01-29T06:57:19;95744.31;;;2.21;100.00
10652;BME280;5374;42.742;23.266;2023-01-29T07:00:09;95759.75;;;2.37;100.00
10652;BME280;5374;42.742;23.266;2023-01-29T07:02:57;95763.78;;;2.39;100.00
10652;BME280;5374;42.742;23.266;2023-01-29T07:05:49;95769.03;;;2.39;100.00
10652;BME280;5374;42.742;23.266;2023-01-29T07:08:36;95774.31;;;2.46;100.00
10652;BME280;5374;42.742;23.266;2023-01-29T07:11:24;95774.91;;;2.42;100.00
10652;BME280;5374;42.742;23.266;2023-01-29T07:14:11;95780.38;;;2.47;100.00
10652;BME280;5374;42.742;23.266;2023-01-29T07:17:00;95782.38;;;2.45;100.00
10652;BME280;5374;42.742;23.266;2023-01-29T07:19:47;95758.25;;;2.28;100.00
10652;BME280;5374;42.742;23.266;2023-01-29T07:22:34;95775.47;;;2.37;100.00
10652;BME280;5374;42.742;23.266;2023-01-29T07:25:21;95779.94;;;2.43;100.00
10652;BME280;5374;42.742;23.266;2023-01-29T07:28:09;95786.44;;;2.47;100.00
10652;BME280;5374;42.742;23.266;2023-01-29T07:30:56;95788.88;;;2.55;100.00
10652;BME280;5374;42.742;23.266;2023-01-29T07:33:45;95792.06;;;2.51;100.00
10652;BME280;5374;42.742;23.266;2023-01-29T07:36:32;95790.69;;;2.48;100.00
10652;BME280;5374;42.742;23.266;2023-01-29T07:39:19;95792.81;;;2.38;100.00
10652;BME280;5374;42.742;23.266;2023-01-29T07:42:06;95791.00;;;2.38;100.00
10652;BME280;5374;42.742;23.266;2023-01-29T07:44:54;95797.22;;;2.37;100.00
10652;BME280;5374;42.742;23.266;2023-01-29T07:47:43;95782.69;;;2.35;100.00
10652;BME280;5374;42.742;23.266;2023-01-29T07:50:33;95798.72;;;2.47;100.00
10652;BME280;5374;42.742;23.266;2023-01-29T07:53:21;95794.31;;;2.54;100.00
10652;BME280;5374;42.742;23.266;2023-01-29T07:56:08;95794.94;;;2.56;100.00
10652;BME280;5374;42.742;23.266;2023-01-29T07:58:55;95795.88;;;2.69;100.00
10652;BME280;5374;42.742;23.266;2023-01-29T08:01:43;95800.09;;;2.70;100.00
10652;BME280;5374;42.742;23.266;2023-01-29T08:04:30;95796.69;;;2.77;100.00
10652;BME280;5374;42.742;23.266;2023-01-29T08:07:18;95767.97;;;2.62;100.00
10652;BME280;5374;42.742;23.266;2023-01-29T08:10:06;95805.28;;;2.92;100.00
10652;BME280;5374;42.742;23.266;2023-01-29T08:12:55;95805.09;;;3.00;100.00
10652;BME280;5374;42.742;23.266;2023-01-29T08:15:43;95803.06;;;2.95;100.00
10652;BME280;5374;42.742;23.266;2023-01-29T08:18:30;95813.75;;;2.94;100.00
10652;BME280;5374;42.742;23.266;2023-01-29T08:21:18;95815.53;;;2.87;100.00
10652;BME280;5374;42.742;23.266;2023-01-29T08:24:07;95811.94;;;2.94;100.00
10652;BME280;5374;42.742;23.266;2023-01-29T08:26:54;95799.19;;;2.85;100.00
10652;BME280;5374;42.742;23.266;2023-01-29T08:29:41;95824.09;;;3.02;100.00
10652;BME280;5374;42.742;23.266;2023-01-29T08:32:29;95817.41;;;2.93;100.00
10652;BME280;5374;42.742;23.266;2023-01-29T08:35:16;95812.06;;;2.80;100.00
10652;BME280;5374;42.742;23.266;2023-01-29T08:38:04;95825.44;;;2.91;100.00
10652;BME280;5374;42.742;23.266;2023-01-29T08:40:52;95731.47;;;2.32;100.00
10652;BME280;5374;42.742;23.266;2023-01-29T08:43:39;95815.25;;;2.75;100.00
10652;BME280;5374;42.742;23.266;2023-01-29T08:46:27;95832.28;;;2.86;100.00
10652;BME280;5374;42.742;23.266;2023-01-29T08:49:14;95836.66;;;2.79;100.00
10652;BME280;5374;42.742;23.266;2023-01-29T08:52:01;95834.88;;;2.86;100.00
10652;BME280;5374;42.742;23.266;2023-01-29T08:54:48;95839.13;;;2.87;100.00
10652;BME280;5374;42.742;23.266;2023-01-29T08:57:37;95837.91;;;2.83;100.00
10652;BME280;5374;42.742;23.266;2023-01-29T09:00:25;95819.72;;;2.81;100.00
10652;BME280;5374;42.742;23.266;2023-01-29T09:03:12;95846.56;;;3.11;100.00
10652;BME280;5374;42.742;23.266;2023-01-29T09:05:59;95847.81;;;3.22;100.00
10652;BME280;5374;42.742;23.266;2023-01-29T09:08:46;95841.69;;;3.08;100.00
10652;BME280;5374;42.742;23.266;2023-01-29T09:11:34;95836.00;;;3.04;100.00
10652;BME280;5374;42.742;23.266;2023-01-29T09:14:24;95844.16;;;3.16;100.00
10652;BME280;5374;42.742;23.266;2023-01-29T09:17:12;95836.50;;;3.15;100.00
10652;BME280;5374;42.742;23.266;2023-01-29T09:19:59;95851.00;;;3.17;100.00
10652;BME280;5374;42.742;23.266;2023-01-29T09:22:47;95853.09;;;3.28;100.00
10652;BME280;5374;42.742;23.266;2023-01-29T09:25:36;95836.75;;;3.26;100.00
10652;BME280;5374;42.742;23.266;2023-01-29T09:28:24;95843.66;;;3.34;100.00
10652;BME280;5374;42.742;23.266;2023-01-29T09:31:17;95811.28;;;3.20;100.00
10652;BME280;5374;42.742;23.266;2023-01-29T09:34:04;95834.97;;;3.33;100.00
10652;BME280;5374;42.742;23.266;2023-01-29T09:36:51;95825.47;;;3.32;100.00
10652;BME280;5374;42.742;23.266;2023-01-29T09:39:38;95805.81;;;3.15;100.00
10652;BME280;5374;42.742;23.266;2023-01-29T09:42:29;95827.63;;;3.22;100.00
10652;BME280;5374;42.742;23.266;2023-01-29T09:45:21;95822.38;;;3.22;100.00
10652;BME280;5374;42.742;23.266;2023-01-29T09:48:13;95823.66;;;3.33;100.00
10652;BME280;5374;42.742;23.266;2023-01-29T09:51:03;95818.78;;;3.30;100.00
10652;BME280;5374;42.742;23.266;2023-01-29T09:54:16;95831.16;;;3.36;100.00
10652;BME280;5374;42.742;23.266;2023-01-29T09:57:09;95819.22;;;3.33;100.00
10652;BME280;5374;42.742;23.266;2023-01-29T10:00:01;95811.13;;;3.28;100.00
10652;BME280;5374;42.742;23.266;2023-01-29T10:02:58;95819.94;;;3.21;100.00
10652;BME280;5374;42.742;23.266;2023-01-29T10:06:09;95805.97;;;3.07;100.00
10652;BME280;5374;42.742;23.266;2023-01-29T10:09:56;95813.03;;;3.06;100.00
10652;BME280;5374;42.742;23.266;2023-01-29T10:12:59;95810.66;;;3.18;100.00
10652;BME280;5374;42.742;23.266;2023-01-29T10:15:58;95806.63;;;3.16;100.00
10652;BME280;5374;42.742;23.266;2023-01-29T10:19:19;95803.97;;;3.09;100.00
10652;BME280;5374;42.742;23.266;2023-01-29T10:22:27;95804.38;;;3.13;100.00
10652;BME280;5374;42.742;23.266;2023-01-29T10:25:19;95791.38;;;2.98;100.00
10652;BME280;5374;42.742;23.266;2023-01-29T10:28:15;95797.63;;;2.97;100.00
10652;BME280;5374;42.742;23.266;2023-01-29T10:31:05;95801.28;;;3.02;100.00
10652;BME280;5374;42.742;23.266;2023-01-29T10:33:57;95775.63;;;2.91;100.00
10652;BME280;5374;42.742;23.266;2023-01-29T10:36:48;95795.72;;;3.12;100.00
10652;BME280;5374;42.742;23.266;2023-01-29T10:39:37;95788.66;;;3.19;100.00
10652;BME280;5374;42.742;23.266;2023-01-29T10:42:29;95772.41;;;2.96;100.00
10652;BME280;5374;42.742;23.266;2023-01-29T10:45:28;95771.34;;;2.84;100.00
10652;BME280;5374;42.742;23.266;2023-01-29T10:48:36;95737.72;;;2.59;100.00
10652;BME280;5374;42.742;23.266;2023-01-29T10:51:39;95798.00;;;2.94;100.00
10652;BME280;5374;42.742;23.266;2023-01-29T10:54:55;95791.22;;;3.06;100.00
10652;BME280;5374;42.742;23.266;2023-01-29T10:57:59;95731.97;;;2.77;100.00
10652;BME280;5374;42.742;23.266;2023-01-29T11:00:50;95707.59;;;2.49;100.00
10652;BME280;5374;42.742;23.266;2023-01-29T11:03:38;95773.06;;;3.04;100.00
10652;BME280;5374;42.742;23.266;2023-01-29T11:06:29;95761.09;;;2.95;100.00
10652;BME280;5374;42.742;23.266;2023-01-29T11:09:25;95771.41;;;2.97;100.00
10652;BME280;5374;42.742;23.266;2023-01-29T11:12:43;95683.13;;;2.35;100.00
10652;BME280;5374;42.742;23.266;2023-01-29T11:15:35;95790.38;;;2.99;100.00
10652;BME280;5374;42.742;23.266;2023-01-29T11:18:22;95772.59;;;2.94;100.00
10652;BME280;5374;42.742;23.266;2023-01-29T11:21:09;95727.13;;;2.81;100.00
10652;BME280;5374;42.742;23.266;2023-01-29T11:24:10;95755.28;;;3.00;100.00
10652;BME280;5374;42.742;23.266;2023-01-29T11:27:00;95697.91;;;2.84;100.00
10652;BME280;5374;42.742;23.266;2023-01-29T11:29:51;95753.63;;;3.33;100.00
10652;BME280;5374;42.742;23.266;2023-01-29T11:32:39;95753.63;;;3.33;100.00
10652;BME280;5374;42.742;23.266;2023-01-29T11:35:27;95753.22;;;3.36;100.00
10652;BME280;5374;42.742;23.266;2023-01-29T11:38:20;95746.53;;;3.27;100.00
10652;BME280;5374;42.742;23.266;2023-01-29T11:41:15;95744.50;;;3.29;100.00
10652;BME280;5374;42.742;23.266;2023-01-29T11:44:17;95729.41;;;3.38;100.00
10652;BME280;5374;42.742;23.266;2023-01-29T11:47:17;95674.56;;;3.02;100.00
10652;BME280;5374;42.742;23.266;2023-01-29T11:50:11;95731.22;;;3.37;100.00
10652;BME280;5374;42.742;23.266;2023-01-29T11:53:22;95692.81;;;3.23;100.00
10652;BME280;5374;42.742;23.266;2023-01-29T11:56:20;95688.41;;;3.30;100.00
10652;BME280;5374;42.742;23.266;2023-01-29T11:59:25;95715.47;;;3.44;100.00
10652;BME280;5374;42.742;23.266;2023-01-29T12:02:54;95672.25;;;3.33;100.00
10652;BME280;5374;42.742;23.266;2023-01-29T12:06:00;95684.78;;;3.38;100.00
10652;BME280;5374;42.742;23.266;2023-01-29T12:13:03;95731.34;;;4.03;100.00
10652;BME280;5374;42.742;23.266;2023-01-29T12:16:05;95683.81;;;3.85;100.00
10652;BME280;5374;42.742;23.266;2023-01-29T12:19:29;95762.47;;;4.20;100.00
10652;BME280;5374;42.742;23.266;2023-01-29T12:59:40;95727.09;;;4.22;100.00
10652;BME280;5374;42.742;23.266;2023-01-29T13:02:35;95733.97;;;4.17;100.00
10652;BME280;5374;42.742;23.266;2023-01-29T13:05:25;95728.50;;;4.18;100.00
10652;BME280;5374;42.742;23.266;2023-01-29T13:08:17;95709.91;;;3.93;100.00
10652;BME280;5374;42.742;23.266;2023-01-29T13:11:09;95715.38;;;3.98;100.00
10652;BME280;5374;42.742;23.266;2023-01-29T13:14:00;95722.84;;;3.95;100.00
10652;BME280;5374;42.742;23.266;2023-01-29T13:16:54;95724.66;;;3.81;100.00
10652;BME280;5374;42.742;23.266;2023-01-29T13:19:46;95733.13;;;3.83;100.00
10652;BME280;5374;42.742;23.266;2023-01-29T13:22:37;95734.09;;;3.69;100.00
10652;BME280;5374;42.742;23.266;2023-01-29T13:25:26;95706.19;;;3.48;100.00
10652;BME280;5374;42.742;23.266;2023-01-29T13:28:16;95745.41;;;3.63;100.00
10652;BME280;5374;42.742;23.266;2023-01-29T13:31:15;95712.63;;;3.32;100.00
10652;BME280;5374;42.742;23.266;2023-01-29T13:34:12;95748.59;;;3.45;100.00
10652;BME280;5374;42.742;23.266;2023-01-29T13:37:09;95753.84;;;3.38;100.00
10652;BME280;5374;42.742;23.266;2023-01-29T13:40:04;95750.16;;;3.26;100.00
10652;BME280;5374;42.742;23.266;2023-01-29T13:42:53;95759.47;;;3.35;100.00
10652;BME280;5374;42.742;23.266;2023-01-29T13:45:44;95763.09;;;3.34;100.00
10652;BME280;5374;42.742;23.266;2023-01-29T13:48:32;95742.66;;;3.23;100.00
10652;BME280;5374;42.742;23.266;2023-01-29T13:51:33;95760.63;;;3.26;100.00
10652;BME280;5374;42.742;23.266;2023-01-29T13:54:24;95758.97;;;3.19;100.00
10652;BME280;5374;42.742;23.266;2023-01-29T13:57:35;95743.25;;;3.12;100.00
10652;BME280;5374;42.742;23.266;2023-01-29T14:00:56;95759.97;;;3.11;100.00
10652;BME280;5374;42.742;23.266;2023-01-29T14:03:51;95776.53;;;3.12;100.00
10652;BME280;5374;42.742;23.266;2023-01-29T14:06:54;95729.41;;;2.90;100.00
10652;BME280;5374;42.742;23.266;2023-01-29T14:10:01;95774.91;;;3.17;100.00
10652;BME280;5374;42.742;23.266;2023-01-29T14:16:59;95665.41;;;2.37;100.00
10652;BME280;5374;42.742;23.266;2023-01-29T14:23:31;95723.66;;;2.67;100.00
10652;BME280;5374;42.742;23.266;2023-01-29T14:26:26;95699.78;;;2.55;100.00
10652;BME280;5374;42.742;23.266;2023-01-29T14:29:23;95707.19;;;2.45;100.00
10652;BME280;5374;42.742;23.266;2023-01-29T14:32:21;95694.78;;;2.26;100.00
10652;BME280;5374;42.742;23.266;2023-01-29T14:42:32;95765.13;;;2.57;100.00
10652;BME280;5374;42.742;23.266;2023-01-29T14:45:23;95781.59;;;2.79;100.00
10652;BME280;5374;42.742;23.266;2023-01-29T14:48:35;95769.22;;;2.66;100.00
10652;BME280;5374;42.742;23.266;2023-01-29T14:51:31;95731.06;;;2.29;100.00
10652;BME280;5374;42.742;23.266;2023-01-29T14:54:28;95786.09;;;2.57;100.00
10652;BME280;5374;42.742;23.266;2023-01-29T14:57:19;95796.13;;;2.53;100.00
10652;BME280;5374;42.742;23.266;2023-01-29T15:00:17;95790.06;;;2.46;100.00
10652;BME280;5374;42.742;23.266;2023-01-29T15:03:15;95800.19;;;2.56;100.00
10652;BME280;5374;42.742;23.266;2023-01-29T15:06:13;95777.16;;;2.51;100.00
10652;BME280;5374;42.742;23.266;2023-01-29T15:09:05;95798.44;;;2.63;100.00
10652;BME280;5374;42.742;23.266;2023-01-29T15:12:02;95799.31;;;2.77;100.00
10652;BME280;5374;42.742;23.266;2023-01-29T15:15:00;95793.00;;;2.64;100.00
10652;BME280;5374;42.742;23.266;2023-01-29T15:17:58;95787.28;;;2.54;100.00
10652;BME280;5374;42.742;23.266;2023-01-29T15:21:00;95805.19;;;2.51;100.00
10652;BME280;5374;42.742;23.266;2023-01-29T15:24:02;95808.22;;;2.48;100.00
10652;BME280;5374;42.742;23.266;2023-01-29T15:26:50;95799.28;;;2.42;100.00
10652;BME280;5374;42.742;23.266;2023-01-29T15:29:38;95800.66;;;2.38;100.00
10652;BME280;5374;42.742;23.266;2023-01-29T15:32:31;95811.16;;;2.38;100.00
10652;BME280;5374;42.742;23.266;2023-01-29T15:35:26;95809.28;;;2.32;100.00
10652;BME280;5374;42.742;23.266;2023-01-29T15:38:16;95814.03;;;2.22;100.00
10652;BME280;5374;42.742;23.266;2023-01-29T15:41:16;95796.25;;;2.17;100.00
10652;BME280;5374;42.742;23.266;2023-01-29T15:44:12;95808.91;;;2.35;100.00
10652;BME280;5374;42.742;23.266;2023-01-29T15:47:01;95812.44;;;2.27;100.00
10652;BME280;5374;42.742;23.266;2023-01-29T15:49:48;95812.59;;;2.19;100.00
10652;BME280;5374;42.742;23.266;2023-01-29T15:52:37;95818.50;;;2.06;100.00
10652;BME280;5374;42.742;23.266;2023-01-29T15:55:26;95802.63;;;2.08;100.00
10652;BME280;5374;42.742;23.266;2023-01-29T15:58:16;95816.66;;;2.00;100.00
10652;BME280;5374;42.742;23.266;2023-01-29T16:01:05;95809.91;;;1.91;100.00
10652;BME280;5374;42.742;23.266;2023-01-29T16:03:53;95815.16;;;1.91;100.00
10652;BME280;5374;42.742;23.266;2023-01-29T16:06:41;95817.78;;;1.91;100.00
10652;BME280;5374;42.742;23.266;2023-01-29T16:09:31;95819.84;;;1.96;100.00
10652;BME280;5374;42.742;23.266;2023-01-29T16:12:18;95823.91;;;1.98;100.00